FIN1AU EFHK-LGRP
Flight info
| Callsign | FIN1AU |
|---|---|
| Flight time | N/A |
| Altitude | 32000 |
| Route | KOIVU Y123 LARTI DCT ORTAX DCT BERIL DCT TOXAR/N0449F330 DCT LIBGA/N0451F340 DCT ROBTU/N0449F330 DCT KENIN DCT TIXIP DCT LOMOS/N0453F350 DCT WAK DCT NIKTI DCT STINO DCT MES UN139 LURUS UL995 CODIC |
| Aircraft | A321/M-SDE3FGHIRWY/LB1 |
Departure
| Time | 2026-04-23 07:47 |
|---|---|
| Airport | Helsinki Vantaa Airport (EFHK) |
Arrival
| Time | N/A |
|---|---|
| Airport | Rhodes International Airport "Diagoras" (LGRP) |
| Time | Latitude | Longitude | Altitude | Speed | Heading |
|---|---|---|---|---|---|
| 2026-04-22 20:08 | 60.31804 | 24.96386 | 167 ft | 0 kts | 137° |
| 2026-04-23 07:36 | 60.31806 | 24.96383 | 166 ft | 2 kts | 137° |
| 2026-04-23 07:36 | 60.31819 | 24.96363 | 166 ft | 2 kts | 146° |
| 2026-04-23 07:36 | 60.31834 | 24.96348 | 166 ft | 2 kts | 171° |
| 2026-04-23 07:36 | 60.31850 | 24.96345 | 166 ft | 2 kts | 191° |
| 2026-04-23 07:37 | 60.31866 | 24.96355 | 166 ft | 2 kts | 212° |
| 2026-04-23 07:37 | 60.31879 | 24.96375 | 166 ft | 2 kts | 228° |
| 2026-04-23 07:37 | 60.31883 | 24.96384 | 166 ft | 0 kts | 230° |
| 2026-04-23 07:40 | 60.31881 | 24.96378 | 166 ft | 2 kts | 231° |
| 2026-04-23 07:41 | 60.31856 | 24.96284 | 166 ft | 13 kts | 258° |
| 2026-04-23 07:41 | 60.31821 | 24.96108 | 166 ft | 14 kts | 228° |
| 2026-04-23 07:41 | 60.31755 | 24.95959 | 166 ft | 14 kts | 228° |
| 2026-04-23 07:41 | 60.31691 | 24.95816 | 166 ft | 12 kts | 227° |
| 2026-04-23 07:42 | 60.31636 | 24.95694 | 166 ft | 12 kts | 227° |
| 2026-04-23 07:42 | 60.31568 | 24.95612 | 166 ft | 12 kts | 210° |
| 2026-04-23 07:42 | 60.31514 | 24.95489 | 166 ft | 12 kts | 227° |
| 2026-04-23 07:42 | 60.31456 | 24.95365 | 166 ft | 12 kts | 227° |
| 2026-04-23 07:43 | 60.31473 | 24.95230 | 167 ft | 11 kts | 324° |
| 2026-04-23 07:43 | 60.31521 | 24.95123 | 169 ft | 9 kts | 295° |
| 2026-04-23 07:43 | 60.31499 | 24.95013 | 168 ft | 12 kts | 228° |
| 2026-04-23 07:43 | 60.31437 | 24.94877 | 166 ft | 14 kts | 227° |
| 2026-04-23 07:44 | 60.31362 | 24.94713 | 162 ft | 18 kts | 227° |
| 2026-04-23 07:44 | 60.31274 | 24.94516 | 159 ft | 20 kts | 229° |
| 2026-04-23 07:44 | 60.31184 | 24.94311 | 159 ft | 19 kts | 230° |
| 2026-04-23 07:44 | 60.31116 | 24.94158 | 157 ft | 12 kts | 227° |
| 2026-04-23 07:45 | 60.31058 | 24.94035 | 158 ft | 12 kts | 226° |
| 2026-04-23 07:45 | 60.31032 | 24.93895 | 158 ft | 11 kts | 282° |
| 2026-04-23 07:45 | 60.31069 | 24.93762 | 159 ft | 11 kts | 308° |
| 2026-04-23 07:45 | 60.31135 | 24.93674 | 158 ft | 12 kts | 358° |
| 2026-04-23 07:46 | 60.31194 | 24.93777 | 159 ft | 14 kts | 50° |
| 2026-04-23 07:46 | 60.31386 | 24.94189 | 161 ft | 78 kts | 47° |
| 2026-04-23 07:46 | 60.31913 | 24.95344 | 175 ft | 143 kts | 48° |
| 2026-04-23 07:46 | 60.32645 | 24.97074 | 539 ft | 168 kts | 47° |
| 2026-04-23 07:47 | 60.33397 | 24.98902 | 1456 ft | 170 kts | 43° |
| 2026-04-23 07:47 | 60.34187 | 25.00664 | 2022 ft | 174 kts | 41° |
| 2026-04-23 07:47 | 60.35072 | 25.02545 | 2222 ft | 195 kts | 41° |
| 2026-04-23 07:47 | 60.36060 | 25.04647 | 2365 ft | 219 kts | 42° |
| 2026-04-23 07:48 | 60.36776 | 25.06181 | 2551 ft | 233 kts | 43° |
| 2026-04-23 07:48 | 60.38267 | 25.09424 | 3460 ft | 240 kts | 44° |
| 2026-04-23 07:48 | 60.39123 | 25.12349 | 4233 ft | 251 kts | 70° |
| 2026-04-23 07:48 | 60.39213 | 25.14759 | 4750 ft | 262 kts | 91° |
| 2026-04-23 07:49 | 60.38591 | 25.18329 | 5472 ft | 274 kts | 108° |
| 2026-04-23 07:49 | 60.37497 | 25.22999 | 6372 ft | 280 kts | 108° |
| 2026-04-23 07:49 | 60.36640 | 25.26567 | 7010 ft | 284 kts | 108° |
| 2026-04-23 07:49 | 60.36055 | 25.28998 | 7434 ft | 286 kts | 108° |
| 2026-04-23 07:50 | 60.35042 | 25.32526 | 8048 ft | 298 kts | 122° |
| 2026-04-23 07:50 | 60.33482 | 25.35438 | 8646 ft | 314 kts | 142° |
| 2026-04-23 07:50 | 60.31447 | 25.37240 | 9218 ft | 327 kts | 165° |
| 2026-04-23 07:50 | 60.29158 | 25.37626 | 9787 ft | 334 kts | 180° |
| 2026-04-23 07:51 | 60.26807 | 25.37490 | 10190 ft | 345 kts | 187° |
| 2026-04-23 07:51 | 60.24411 | 25.36391 | 10316 ft | 362 kts | 203° |
| 2026-04-23 07:51 | 60.22096 | 25.34161 | 10445 ft | 375 kts | 216° |
| 2026-04-23 07:51 | 60.19986 | 25.30943 | 10576 ft | 386 kts | 228° |
| 2026-04-23 07:52 | 60.17983 | 25.27201 | 10841 ft | 398 kts | 228° |
| 2026-04-23 07:52 | 60.15930 | 25.23415 | 11326 ft | 403 kts | 228° |
| 2026-04-23 07:52 | 60.13873 | 25.19657 | 11843 ft | 407 kts | 228° |
| 2026-04-23 07:52 | 60.11766 | 25.15821 | 12379 ft | 411 kts | 228° |
| 2026-04-23 07:53 | 60.09641 | 25.11954 | 12909 ft | 415 kts | 228° |
| 2026-04-23 07:53 | 60.07494 | 25.08051 | 13436 ft | 418 kts | 229° |
| 2026-04-23 07:53 | 60.05328 | 25.04113 | 13929 ft | 422 kts | 229° |
| 2026-04-23 07:53 | 60.03145 | 25.00145 | 14399 ft | 426 kts | 229° |
| 2026-04-23 07:54 | 60.00946 | 24.96146 | 14884 ft | 429 kts | 229° |
| 2026-04-23 07:54 | 59.98728 | 24.92118 | 15355 ft | 432 kts | 229° |
| 2026-04-23 07:54 | 59.96493 | 24.88074 | 15838 ft | 435 kts | 229° |
| 2026-04-23 07:54 | 59.94235 | 24.84008 | 16313 ft | 439 kts | 229° |
| 2026-04-23 07:55 | 59.91960 | 24.79921 | 16781 ft | 442 kts | 229° |
| 2026-04-23 07:55 | 59.89670 | 24.75808 | 17253 ft | 445 kts | 229° |
| 2026-04-23 07:55 | 59.87350 | 24.71698 | 17718 ft | 450 kts | 225° |
| 2026-04-23 07:55 | 59.84736 | 24.68122 | 18168 ft | 461 kts | 214° |
| 2026-04-23 07:56 | 59.81791 | 24.65432 | 18561 ft | 471 kts | 202° |
| 2026-04-23 07:56 | 59.78613 | 24.63703 | 18939 ft | 477 kts | 195° |
| 2026-04-23 07:56 | 59.75370 | 24.62204 | 19323 ft | 480 kts | 195° |
| 2026-04-23 07:56 | 59.72111 | 24.60682 | 19690 ft | 483 kts | 196° |
| 2026-04-23 07:57 | 59.68835 | 24.59144 | 20068 ft | 486 kts | 196° |
| 2026-04-23 07:57 | 59.65525 | 24.57638 | 20425 ft | 489 kts | 194° |
| 2026-04-23 07:57 | 59.62172 | 24.56339 | 20784 ft | 493 kts | 192° |
| 2026-04-23 07:57 | 59.58780 | 24.55224 | 21135 ft | 496 kts | 191° |
| 2026-04-23 07:58 | 59.55360 | 24.54220 | 21485 ft | 499 kts | 190° |
| 2026-04-23 07:58 | 59.51915 | 24.53247 | 21825 ft | 501 kts | 190° |
| 2026-04-23 07:58 | 59.48452 | 24.52256 | 22167 ft | 504 kts | 190° |
| 2026-04-23 07:58 | 59.44970 | 24.51211 | 22505 ft | 506 kts | 191° |
| 2026-04-23 07:59 | 59.41484 | 24.50110 | 22844 ft | 509 kts | 191° |
| 2026-04-23 07:59 | 59.37981 | 24.48969 | 23167 ft | 511 kts | 191° |
| 2026-04-23 07:59 | 59.34462 | 24.47813 | 23512 ft | 514 kts | 191° |
| 2026-04-23 07:59 | 59.30927 | 24.46656 | 23785 ft | 517 kts | 191° |
| 2026-04-23 08:00 | 59.27370 | 24.45509 | 24042 ft | 519 kts | 191° |
| 2026-04-23 08:00 | 59.23793 | 24.44370 | 24304 ft | 522 kts | 191° |
| 2026-04-23 08:00 | 59.20197 | 24.43236 | 24560 ft | 525 kts | 191° |
| 2026-04-23 08:00 | 59.16585 | 24.42098 | 24817 ft | 527 kts | 191° |
| 2026-04-23 08:01 | 59.12953 | 24.40953 | 25068 ft | 530 kts | 191° |
| 2026-04-23 08:01 | 59.09303 | 24.39803 | 25320 ft | 532 kts | 191° |
| 2026-04-23 08:01 | 59.05641 | 24.38655 | 25560 ft | 535 kts | 191° |
| 2026-04-23 08:01 | 59.01959 | 24.37506 | 25808 ft | 537 kts | 191° |
| 2026-04-23 08:02 | 58.98260 | 24.36356 | 26039 ft | 540 kts | 191° |
| 2026-04-23 08:02 | 58.94550 | 24.35202 | 26267 ft | 542 kts | 191° |
| 2026-04-23 08:02 | 58.90816 | 24.34042 | 26495 ft | 544 kts | 191° |
| 2026-04-23 08:02 | 58.87067 | 24.32877 | 26730 ft | 547 kts | 191° |
| 2026-04-23 08:03 | 58.83303 | 24.31688 | 26959 ft | 549 kts | 192° |
| 2026-04-23 08:03 | 58.79543 | 24.30373 | 27175 ft | 551 kts | 193° |
| 2026-04-23 08:03 | 58.75776 | 24.28924 | 27399 ft | 553 kts | 194° |
| 2026-04-23 08:03 | 58.72002 | 24.27388 | 27639 ft | 555 kts | 194° |
| 2026-04-23 08:04 | 58.68224 | 24.25829 | 27942 ft | 556 kts | 194° |
| 2026-04-23 08:04 | 58.64439 | 24.24300 | 28295 ft | 556 kts | 194° |
| 2026-04-23 08:04 | 58.60650 | 24.22820 | 28616 ft | 556 kts | 193° |
| 2026-04-23 08:04 | 58.56848 | 24.21379 | 28922 ft | 557 kts | 193° |
| 2026-04-23 08:05 | 58.53044 | 24.19962 | 29233 ft | 557 kts | 193° |
| 2026-04-23 08:05 | 58.49236 | 24.18553 | 29541 ft | 558 kts | 193° |
| 2026-04-23 08:05 | 58.45425 | 24.17133 | 29861 ft | 558 kts | 193° |
| 2026-04-23 08:05 | 58.41609 | 24.15698 | 30119 ft | 559 kts | 193° |
| 2026-04-23 08:06 | 58.37796 | 24.14258 | 30380 ft | 559 kts | 193° |
| 2026-04-23 08:06 | 58.33986 | 24.12819 | 30660 ft | 558 kts | 193° |
| 2026-04-23 08:06 | 58.30180 | 24.11382 | 30939 ft | 558 kts | 193° |
| 2026-04-23 08:06 | 58.26373 | 24.09953 | 31223 ft | 557 kts | 193° |
| 2026-04-23 08:07 | 58.22570 | 24.08529 | 31500 ft | 556 kts | 193° |
| 2026-04-23 08:07 | 58.18774 | 24.07112 | 31766 ft | 556 kts | 193° |
| 2026-04-23 08:07 | 58.14980 | 24.05705 | 31946 ft | 556 kts | 193° |
| 2026-04-23 08:08 | 58.07393 | 24.02898 | 31977 ft | 555 kts | 193° |
| 2026-04-23 08:08 | 57.99816 | 24.00117 | 31982 ft | 554 kts | 193° |
| 2026-04-23 08:09 | 57.92249 | 23.97343 | 31987 ft | 554 kts | 193° |
| 2026-04-23 08:09 | 57.84685 | 23.94577 | 31985 ft | 553 kts | 193° |
| 2026-04-23 08:10 | 57.77119 | 23.91817 | 31987 ft | 553 kts | 193° |
| 2026-04-23 08:10 | 57.65769 | 23.87682 | 31988 ft | 553 kts | 192° |
| 2026-04-23 08:11 | 57.58204 | 23.84966 | 31986 ft | 553 kts | 192° |
| 2026-04-23 08:11 | 57.50647 | 23.82270 | 31990 ft | 553 kts | 192° |
| 2026-04-23 08:12 | 57.43090 | 23.79578 | 31986 ft | 553 kts | 192° |
| 2026-04-23 08:12 | 57.35535 | 23.76890 | 31988 ft | 552 kts | 192° |
| 2026-04-23 08:13 | 57.27996 | 23.74212 | 31988 ft | 552 kts | 192° |
| 2026-04-23 08:13 | 57.20461 | 23.71541 | 31986 ft | 551 kts | 192° |
| 2026-04-23 08:14 | 57.12930 | 23.68890 | 31988 ft | 551 kts | 192° |
| 2026-04-23 08:14 | 57.05392 | 23.66261 | 31987 ft | 550 kts | 192° |
| 2026-04-23 08:15 | 56.97874 | 23.63650 | 31990 ft | 550 kts | 192° |
| 2026-04-23 08:15 | 56.90360 | 23.61042 | 31995 ft | 549 kts | 192° |
| 2026-04-23 08:16 | 56.82849 | 23.58462 | 31987 ft | 548 kts | 191° |
| 2026-04-23 08:16 | 56.75350 | 23.55879 | 31991 ft | 548 kts | 192° |
| 2026-04-23 08:17 | 56.67863 | 23.53297 | 31985 ft | 547 kts | 192° |
| 2026-04-23 08:17 | 56.60381 | 23.50727 | 31989 ft | 547 kts | 191° |
| 2026-04-23 08:18 | 56.52907 | 23.48193 | 31982 ft | 546 kts | 191° |
| 2026-04-23 08:18 | 56.45437 | 23.45690 | 31981 ft | 545 kts | 191° |
| 2026-04-23 08:19 | 56.37976 | 23.43179 | 31987 ft | 545 kts | 191° |
| 2026-04-23 08:19 | 56.30509 | 23.40874 | 31981 ft | 545 kts | 189° |
| 2026-04-23 08:20 | 56.22996 | 23.39009 | 31979 ft | 544 kts | 187° |
| 2026-04-23 08:20 | 56.15495 | 23.37242 | 31984 ft | 543 kts | 188° |
| 2026-04-23 08:21 | 56.08011 | 23.35356 | 31987 ft | 543 kts | 188° |
| 2026-04-23 08:21 | 56.00541 | 23.33398 | 31989 ft | 542 kts | 188° |
| 2026-04-23 08:22 | 55.93082 | 23.31478 | 31992 ft | 541 kts | 188° |
| 2026-04-23 08:22 | 55.85630 | 23.29602 | 31994 ft | 541 kts | 188° |
| 2026-04-23 08:23 | 55.78178 | 23.27735 | 31990 ft | 540 kts | 188° |
| 2026-04-23 08:23 | 55.70742 | 23.25870 | 31990 ft | 539 kts | 188° |
| 2026-04-23 08:24 | 55.63315 | 23.24001 | 31984 ft | 538 kts | 188° |
| 2026-04-23 08:24 | 55.55908 | 23.22141 | 31976 ft | 537 kts | 188° |
| 2026-04-23 08:25 | 55.48514 | 23.20304 | 31975 ft | 536 kts | 188° |
| 2026-04-23 08:25 | 55.42372 | 23.18776 | 31973 ft | 536 kts | 188° |
| 2026-04-23 08:26 | 55.33746 | 23.16641 | 31969 ft | 535 kts | 188° |
| 2026-04-23 08:26 | 55.27620 | 23.15152 | 31972 ft | 534 kts | 188° |
| 2026-04-23 08:27 | 55.20255 | 23.13375 | 31974 ft | 534 kts | 188° |
| 2026-04-23 08:27 | 55.12905 | 23.11571 | 31976 ft | 533 kts | 188° |
| 2026-04-23 08:28 | 55.05557 | 23.09755 | 31977 ft | 532 kts | 188° |
| 2026-04-23 08:28 | 54.98232 | 23.07964 | 31978 ft | 531 kts | 188° |
| 2026-04-23 08:29 | 54.90909 | 23.06201 | 31974 ft | 531 kts | 188° |
| 2026-04-23 08:29 | 54.83595 | 23.04454 | 31973 ft | 530 kts | 188° |
| 2026-04-23 08:30 | 54.76296 | 23.02698 | 31974 ft | 529 kts | 188° |
| 2026-04-23 08:30 | 54.69004 | 23.00956 | 31971 ft | 529 kts | 188° |
| 2026-04-23 08:31 | 54.61721 | 22.99219 | 31973 ft | 528 kts | 188° |
| 2026-04-23 08:31 | 54.54448 | 22.97492 | 31972 ft | 527 kts | 188° |
| 2026-04-23 08:32 | 54.47187 | 22.95787 | 31970 ft | 526 kts | 188° |
| 2026-04-23 08:32 | 54.39934 | 22.94084 | 31970 ft | 525 kts | 188° |
| 2026-04-23 08:33 | 54.32697 | 22.92389 | 31967 ft | 525 kts | 188° |
| 2026-04-23 08:33 | 54.25472 | 22.90706 | 31971 ft | 524 kts | 188° |
| 2026-04-23 08:34 | 54.18255 | 22.89022 | 31968 ft | 523 kts | 188° |
| 2026-04-23 08:34 | 54.11059 | 22.87335 | 31966 ft | 521 kts | 188° |
| 2026-04-23 08:35 | 54.03881 | 22.85671 | 31965 ft | 520 kts | 188° |
| 2026-04-23 08:35 | 53.96710 | 22.84013 | 31966 ft | 519 kts | 188° |
| 2026-04-23 08:36 | 53.89554 | 22.82377 | 31964 ft | 519 kts | 188° |
| 2026-04-23 08:36 | 53.82408 | 22.80745 | 31958 ft | 518 kts | 188° |
| 2026-04-23 08:37 | 53.75276 | 22.79122 | 31963 ft | 517 kts | 188° |
| 2026-04-23 08:37 | 53.68152 | 22.77503 | 31960 ft | 516 kts | 188° |
| 2026-04-23 08:38 | 53.61033 | 22.75890 | 31958 ft | 515 kts | 188° |
| 2026-04-23 08:38 | 53.53928 | 22.74284 | 31957 ft | 515 kts | 188° |
| 2026-04-23 08:39 | 53.46833 | 22.72688 | 31956 ft | 514 kts | 188° |
| 2026-04-23 08:39 | 53.39742 | 22.71098 | 31949 ft | 514 kts | 188° |
| 2026-04-23 08:40 | 53.32663 | 22.69508 | 31953 ft | 513 kts | 188° |
| 2026-04-23 08:40 | 53.25593 | 22.67934 | 31949 ft | 512 kts | 188° |
| 2026-04-23 08:41 | 53.18524 | 22.66361 | 31952 ft | 512 kts | 188° |
| 2026-04-23 08:41 | 53.11473 | 22.64794 | 31949 ft | 511 kts | 188° |
| 2026-04-23 08:42 | 53.04424 | 22.63237 | 31949 ft | 510 kts | 187° |
| 2026-04-23 08:42 | 52.97388 | 22.61693 | 31944 ft | 510 kts | 187° |
| 2026-04-23 08:43 | 52.90360 | 22.60153 | 31951 ft | 509 kts | 187° |
| 2026-04-23 08:43 | 52.83344 | 22.58619 | 31955 ft | 509 kts | 187° |
| 2026-04-23 08:44 | 52.76322 | 22.57099 | 31955 ft | 508 kts | 187° |
| 2026-04-23 08:44 | 52.69311 | 22.55571 | 31957 ft | 508 kts | 187° |
| 2026-04-23 08:45 | 52.62304 | 22.54047 | 31955 ft | 508 kts | 187° |
| 2026-04-23 08:45 | 52.55291 | 22.52615 | 31960 ft | 508 kts | 186° |
| 2026-04-23 08:46 | 52.48277 | 22.51327 | 31953 ft | 507 kts | 186° |
| 2026-04-23 08:46 | 52.41261 | 22.50061 | 31959 ft | 507 kts | 186° |
| 2026-04-23 08:47 | 52.34259 | 22.48745 | 31959 ft | 506 kts | 186° |
| 2026-04-23 08:47 | 52.27255 | 22.47406 | 31960 ft | 506 kts | 186° |
| 2026-04-23 08:48 | 52.20265 | 22.46090 | 31971 ft | 505 kts | 186° |
| 2026-04-23 08:48 | 52.13275 | 22.44792 | 31966 ft | 505 kts | 186° |
| 2026-04-23 08:49 | 52.06292 | 22.43496 | 31972 ft | 504 kts | 186° |
| 2026-04-23 08:49 | 51.99323 | 22.42204 | 31972 ft | 504 kts | 186° |
| 2026-04-23 08:50 | 51.92357 | 22.40917 | 31968 ft | 503 kts | 186° |
| 2026-04-23 08:50 | 51.85397 | 22.39635 | 31973 ft | 503 kts | 186° |
| 2026-04-23 08:51 | 51.78442 | 22.38361 | 31974 ft | 503 kts | 186° |
| 2026-04-23 08:51 | 51.71491 | 22.37095 | 31975 ft | 502 kts | 186° |
| 2026-04-23 08:52 | 51.64547 | 22.35822 | 31966 ft | 502 kts | 186° |
| 2026-04-23 08:52 | 51.57601 | 22.34545 | 31981 ft | 502 kts | 185° |
| 2026-04-23 08:53 | 51.50661 | 22.33293 | 31971 ft | 502 kts | 185° |
| 2026-04-23 08:53 | 51.43720 | 22.32040 | 31978 ft | 501 kts | 185° |
| 2026-04-23 08:54 | 51.36785 | 22.30783 | 31973 ft | 501 kts | 185° |
| 2026-04-23 08:54 | 51.29853 | 22.29539 | 31979 ft | 501 kts | 185° |
| 2026-04-23 08:55 | 51.22927 | 22.28303 | 31972 ft | 500 kts | 185° |
| 2026-04-23 08:55 | 51.16004 | 22.27072 | 31983 ft | 500 kts | 185° |
| 2026-04-23 08:56 | 51.09092 | 22.25836 | 31978 ft | 500 kts | 185° |
| 2026-04-23 08:56 | 51.02183 | 22.24599 | 31980 ft | 499 kts | 185° |
| 2026-04-23 08:57 | 50.95292 | 22.23378 | 31981 ft | 499 kts | 185° |
| 2026-04-23 08:57 | 50.88373 | 22.22162 | 31997 ft | 499 kts | 185° |
| 2026-04-23 08:58 | 50.81461 | 22.20942 | 32164 ft | 501 kts | 185° |
| 2026-04-23 08:58 | 50.77998 | 22.20270 | 32432 ft | 501 kts | 186° |
| 2026-04-23 08:58 | 50.74587 | 22.19546 | 32698 ft | 501 kts | 186° |
| 2026-04-23 08:59 | 50.71133 | 22.18778 | 32974 ft | 501 kts | 187° |
| 2026-04-23 08:59 | 50.67639 | 22.17993 | 33239 ft | 500 kts | 186° |
| 2026-04-23 08:59 | 50.64192 | 22.17224 | 33486 ft | 500 kts | 186° |
| 2026-04-23 08:59 | 50.60746 | 22.16472 | 33757 ft | 500 kts | 186° |
| 2026-04-23 09:00 | 50.57306 | 22.15737 | 33963 ft | 500 kts | 186° |
| 2026-04-23 09:00 | 50.53857 | 22.15011 | 33980 ft | 500 kts | 186° |
| 2026-04-23 09:00 | 50.46965 | 22.13568 | 33986 ft | 499 kts | 186° |
| 2026-04-23 09:01 | 50.40083 | 22.12126 | 33988 ft | 499 kts | 186° |
| 2026-04-23 09:01 | 50.33192 | 22.10681 | 33978 ft | 499 kts | 186° |
| 2026-04-23 09:02 | 50.26314 | 22.09237 | 33977 ft | 499 kts | 186° |
| 2026-04-23 09:02 | 50.20588 | 22.08046 | 33977 ft | 499 kts | 185° |
| 2026-04-23 09:03 | 50.13695 | 22.06631 | 33976 ft | 499 kts | 186° |
| 2026-04-23 09:03 | 50.06821 | 22.05206 | 33984 ft | 500 kts | 186° |
| 2026-04-23 09:04 | 49.99915 | 22.03771 | 33997 ft | 500 kts | 185° |
| 2026-04-23 09:04 | 49.93020 | 22.02347 | 34004 ft | 499 kts | 186° |
| 2026-04-23 09:05 | 49.86133 | 22.00927 | 34014 ft | 499 kts | 185° |
| 2026-04-23 09:05 | 49.79255 | 21.99518 | 34024 ft | 498 kts | 185° |
| 2026-04-23 09:06 | 49.72390 | 21.98117 | 34027 ft | 497 kts | 186° |
| 2026-04-23 09:06 | 49.65534 | 21.96712 | 34029 ft | 496 kts | 186° |
| 2026-04-23 09:07 | 49.58703 | 21.95321 | 34029 ft | 495 kts | 185° |
| 2026-04-23 09:07 | 49.51876 | 21.93942 | 34028 ft | 494 kts | 185° |
| 2026-04-23 09:08 | 49.45060 | 21.92562 | 34030 ft | 493 kts | 186° |
| 2026-04-23 09:08 | 49.38267 | 21.91187 | 34032 ft | 492 kts | 185° |
| 2026-04-23 09:09 | 49.31481 | 21.89831 | 34029 ft | 491 kts | 185° |
| 2026-04-23 09:09 | 49.24707 | 21.88478 | 34029 ft | 491 kts | 185° |
| 2026-04-23 09:10 | 49.14547 | 21.86454 | 34021 ft | 490 kts | 185° |
| 2026-04-23 09:11 | 49.07776 | 21.85111 | 34020 ft | 491 kts | 185° |
| 2026-04-23 09:11 | 49.00999 | 21.83768 | 34015 ft | 491 kts | 185° |
| 2026-04-23 09:12 | 48.94221 | 21.82416 | 34015 ft | 491 kts | 185° |
| 2026-04-23 09:12 | 48.87435 | 21.81934 | 34013 ft | 486 kts | 171° |
| 2026-04-23 09:13 | 48.80746 | 21.83323 | 34015 ft | 485 kts | 168° |